createdAt,value
2024-01-24T00:01:02.901Z,99190.58
2024-01-24T00:03:48.775Z,99193.58
2024-01-24T00:06:16.499Z,99184.90
2024-01-24T00:08:44.095Z,99180.35
2024-01-24T00:11:11.955Z,99180.42
2024-01-24T00:13:39.566Z,99181.07
2024-01-24T00:16:07.821Z,99184.91
2024-01-24T00:18:35.487Z,99167.61
2024-01-24T00:21:03.317Z,99158.66
2024-01-24T00:23:31.161Z,99156.88
2024-01-24T00:25:58.910Z,99148.36
2024-01-24T00:28:28.065Z,99140.23
2024-01-24T00:30:55.734Z,99139.16
2024-01-24T00:33:24.549Z,99126.88
2024-01-24T00:35:52.131Z,99117.20
2024-01-24T00:38:19.733Z,99113.33
2024-01-24T00:40:47.328Z,99104.49
2024-01-24T00:43:15.096Z,99099.16
2024-01-24T00:45:42.712Z,99107.11
2024-01-24T00:48:10.803Z,99097.48
2024-01-24T00:50:38.652Z,99095.56
2024-01-24T00:53:07.511Z,99092.80
2024-01-24T00:55:35.131Z,99089.83
2024-01-24T00:58:03.068Z,99093.21
2024-01-24T01:00:30.995Z,99097.20
2024-01-24T01:02:58.671Z,99098.70
2024-01-24T01:05:26.379Z,99103.23
2024-01-24T01:07:54.066Z,99094.85
2024-01-24T01:10:21.833Z,99082.46
2024-01-24T01:12:49.830Z,99082.11
2024-01-24T01:15:17.687Z,99075.52
2024-01-24T01:17:45.352Z,99076.21
2024-01-24T01:20:13.420Z,99070.30
2024-01-24T01:22:41.553Z,99057.89
2024-01-24T01:25:09.610Z,99044.64
2024-01-24T01:27:37.311Z,99030.66
2024-01-24T01:30:05.797Z,99024.06
2024-01-24T01:32:33.480Z,99016.92
2024-01-24T01:35:01.090Z,99006.23
2024-01-24T01:37:28.735Z,98999.10
2024-01-24T01:39:56.414Z,98991.70
2024-01-24T01:42:24.048Z,98989.46
2024-01-24T01:44:51.654Z,98978.07
2024-01-24T01:47:19.659Z,98966.61
2024-01-24T01:49:47.535Z,98961.95
2024-01-24T01:52:15.300Z,98961.41
2024-01-24T01:54:43.415Z,98950.77
2024-01-24T01:57:13.107Z,98940.88
2024-01-24T01:59:44.009Z,98923.01
2024-01-24T02:02:12.140Z,98925.65
2024-01-24T02:04:40.010Z,98927.60
2024-01-24T02:07:08.132Z,98928.27
2024-01-24T02:09:35.997Z,98927.70
2024-01-24T02:12:04.041Z,98916.75
2024-01-24T02:14:31.657Z,98900.74
2024-01-24T02:16:59.216Z,98888.77
2024-01-24T02:19:27.305Z,98889.28
2024-01-24T02:21:55.156Z,98891.46
2024-01-24T02:24:23.222Z,98894.79
2024-01-24T02:26:51.754Z,98890.65
2024-01-24T02:29:19.456Z,98881.45
2024-01-24T02:31:47.200Z,98876.59
2024-01-24T02:34:14.891Z,98865.89
2024-01-24T02:36:42.676Z,98853.14
2024-01-24T02:39:10.461Z,98845.45
2024-01-24T02:41:40.919Z,98838.43
2024-01-24T02:44:08.540Z,98818.37
2024-01-24T02:46:36.149Z,98808.91
2024-01-24T02:49:04.117Z,98803.05
2024-01-24T02:51:32.043Z,98791.78
2024-01-24T02:53:59.984Z,98788.08
2024-01-24T02:56:27.632Z,98779.42
2024-01-24T02:58:55.267Z,98783.66
2024-01-24T03:01:23.008Z,98777.48
2024-01-24T03:03:50.910Z,98770.42
2024-01-24T03:06:19.039Z,98767.33
2024-01-24T03:09:00.224Z,98757.96
2024-01-24T03:11:28.049Z,98760.03
2024-01-24T03:13:55.676Z,98769.73
2024-01-24T03:16:23.355Z,98767.25
2024-01-24T03:18:52.874Z,98760.05
2024-01-24T03:21:20.669Z,98748.55
2024-01-24T03:23:48.360Z,98747.98
2024-01-24T03:26:16.637Z,98744.42
2024-01-24T03:28:44.680Z,98727.64
2024-01-24T03:31:12.512Z,98714.95
2024-01-24T03:33:40.229Z,98698.48
2024-01-24T03:36:08.421Z,98665.77
2024-01-24T03:38:36.212Z,98658.11
2024-01-24T03:41:03.946Z,98651.60
2024-01-24T03:43:31.682Z,98648.34
2024-01-24T03:46:01.182Z,98644.16
2024-01-24T03:48:28.957Z,98649.13
2024-01-24T03:50:56.650Z,98653.67
2024-01-24T03:53:24.199Z,98632.81
2024-01-24T03:55:52.121Z,98621.39
2024-01-24T03:58:20.024Z,98617.64
2024-01-24T04:00:47.850Z,98611.92
2024-01-24T04:03:15.566Z,98603.02
2024-01-24T04:05:43.200Z,98604.23
2024-01-24T04:08:10.834Z,98603.16
2024-01-24T04:10:38.556Z,98597.17
2024-01-24T04:13:06.119Z,98597.85
2024-01-24T04:15:33.813Z,98603.61
2024-01-24T04:18:01.486Z,98593.46
2024-01-24T04:20:30.003Z,98587.78
2024-01-24T04:22:57.692Z,98581.55
2024-01-24T04:25:25.281Z,98575.49
2024-01-24T04:27:53.003Z,98579.98
2024-01-24T04:30:20.910Z,98583.69
2024-01-24T04:32:48.752Z,98588.17
2024-01-24T04:35:16.405Z,98588.24
2024-01-24T04:37:43.972Z,98583.94
2024-01-24T04:40:12.891Z,98583.11
2024-01-24T04:42:40.549Z,98579.39
2024-01-24T04:45:08.656Z,98585.83
2024-01-24T04:47:36.366Z,98583.09
2024-01-24T04:50:05.341Z,98591.55
2024-01-24T04:52:33.064Z,98594.69
2024-01-24T04:55:00.758Z,98580.66
2024-01-24T04:57:28.640Z,98581.08
2024-01-24T04:59:57.188Z,98576.44
2024-01-24T05:02:25.505Z,98564.04
2024-01-24T05:04:53.242Z,98560.70
2024-01-24T05:07:21.029Z,98553.48
2024-01-24T05:09:48.939Z,98550.13
2024-01-24T05:12:16.703Z,98544.20
2024-01-24T05:14:44.438Z,98537.73
2024-01-24T05:17:12.138Z,98526.65
2024-01-24T05:19:40.284Z,98511.76
2024-01-24T05:22:07.935Z,98497.92
2024-01-24T05:24:35.596Z,98498.05
2024-01-24T05:27:03.354Z,98487.73
2024-01-24T05:29:30.951Z,98484.04
2024-01-24T05:31:58.637Z,98472.48
2024-01-24T05:34:26.549Z,98465.95
2024-01-24T05:36:54.938Z,98461.73
2024-01-24T05:39:22.882Z,98459.42
2024-01-24T05:41:50.545Z,98441.86
2024-01-24T05:44:18.155Z,98432.77
2024-01-24T05:46:45.781Z,98417.70
2024-01-24T05:49:13.519Z,98415.92
2024-01-24T05:51:43.576Z,98404.73
2024-01-24T05:54:11.447Z,98397.34
2024-01-24T05:56:39.499Z,98397.65
2024-01-24T05:59:07.609Z,98398.84
2024-01-24T06:01:35.428Z,98398.21
2024-01-24T06:04:03.304Z,98393.10
2024-01-24T06:06:32.149Z,98385.14
2024-01-24T06:08:59.961Z,98384.66
2024-01-24T06:11:27.753Z,98376.81
2024-01-24T06:13:55.502Z,98369.46
2024-01-24T06:16:23.102Z,98355.64
2024-01-24T06:18:50.820Z,98334.38
2024-01-24T06:21:18.495Z,98353.98
2024-01-24T06:23:46.159Z,98370.70
2024-01-24T06:26:14.934Z,98356.12
2024-01-24T06:28:42.598Z,98351.05
2024-01-24T06:31:10.242Z,98350.52
2024-01-24T06:33:38.078Z,98344.42
2024-01-24T06:36:05.822Z,98352.55
2024-01-24T06:38:33.432Z,98342.20
2024-01-24T06:41:01.014Z,98343.30
2024-01-24T06:43:28.648Z,98344.80
2024-01-24T06:45:56.409Z,98339.33
2024-01-24T06:48:24.181Z,98332.42
2024-01-24T06:50:51.814Z,98328.30
2024-01-24T06:53:19.820Z,98324.78
2024-01-24T06:55:47.831Z,98322.02
2024-01-24T06:58:15.473Z,98304.91
2024-01-24T07:00:43.167Z,98297.52
2024-01-24T07:03:11.043Z,98292.41
2024-01-24T07:05:38.706Z,98298.56
2024-01-24T07:08:06.736Z,98300.29
2024-01-24T07:10:34.810Z,98290.30
2024-01-24T07:13:02.584Z,98270.69
2024-01-24T07:15:30.350Z,98259.81
2024-01-24T07:17:58.091Z,98278.13
2024-01-24T07:20:25.885Z,98274.77
2024-01-24T07:22:53.704Z,98284.54
2024-01-24T07:25:22.236Z,98277.62
2024-01-24T07:27:50.506Z,98268.48
2024-01-24T07:30:18.595Z,98266.17
2024-01-24T07:32:46.462Z,98261.29
2024-01-24T07:35:14.305Z,98249.38
2024-01-24T07:37:42.303Z,98245.77
2024-01-24T07:40:15.884Z,98241.84
2024-01-24T07:42:43.961Z,98239.18
2024-01-24T07:45:12.014Z,98226.27
2024-01-24T07:47:40.334Z,98210.89
2024-01-24T07:50:09.329Z,98202.41
2024-01-24T07:52:41.438Z,98181.95
2024-01-24T07:55:12.000Z,98187.02
2024-01-24T07:57:41.723Z,98177.52
2024-01-24T08:00:17.103Z,98172.73
2024-01-24T08:02:45.434Z,98168.48
2024-01-24T08:05:15.625Z,98179.09
2024-01-24T08:07:43.396Z,98169.80
2024-01-24T08:10:14.660Z,98164.84
2024-01-24T08:12:42.385Z,98165.27
2024-01-24T08:15:10.387Z,98169.50
2024-01-24T08:17:38.203Z,98167.48
2024-01-24T08:20:09.790Z,98168.23
2024-01-24T08:22:37.493Z,98166.76
2024-01-24T08:25:05.928Z,98160.24
2024-01-24T08:27:33.674Z,98152.27
2024-01-24T08:30:01.500Z,98138.52
2024-01-24T08:32:29.223Z,98138.61
2024-01-24T08:34:57.084Z,98145.05
2024-01-24T08:37:24.865Z,98136.10
2024-01-24T08:39:52.663Z,98134.08
2024-01-24T08:42:20.680Z,98132.09
2024-01-24T08:44:48.287Z,98123.49
2024-01-24T08:47:15.969Z,98108.78
2024-01-24T08:49:43.666Z,98116.10
2024-01-24T08:52:11.364Z,98119.84
2024-01-24T08:54:39.571Z,98117.80
2024-01-24T08:57:07.536Z,98120.26
2024-01-24T08:59:35.204Z,98127.77
2024-01-24T09:02:06.145Z,98121.35
2024-01-24T09:04:34.765Z,98124.36
2024-01-24T09:07:03.482Z,98118.14
2024-01-24T09:09:33.837Z,98105.77
2024-01-24T09:12:02.157Z,98100.34
2024-01-24T09:14:30.155Z,98087.51
2024-01-24T09:16:58.031Z,98080.77
2024-01-24T09:19:26.154Z,98078.29
2024-01-24T09:21:54.068Z,98084.27
2024-01-24T09:24:21.855Z,98072.36
2024-01-24T09:26:49.616Z,98068.96
2024-01-24T09:29:17.949Z,98065.24
2024-01-24T09:31:47.539Z,98064.17
2024-01-24T09:34:18.298Z,98064.98
2024-01-24T09:36:46.233Z,98060.20
2024-01-24T09:39:13.982Z,98060.79
2024-01-24T09:41:43.209Z,98048.60
2024-01-24T09:44:13.149Z,98053.70
2024-01-24T09:46:43.710Z,98048.52
2024-01-24T09:49:11.636Z,98052.56
2024-01-24T09:51:39.713Z,98047.66
2024-01-24T09:54:07.915Z,98041.67
2024-01-24T09:56:39.618Z,98038.77
2024-01-24T09:59:08.568Z,98032.96
2024-01-24T10:01:38.793Z,98032.19
2024-01-24T10:04:06.986Z,98011.34
2024-01-24T10:06:42.651Z,98005.65
2024-01-24T10:09:10.503Z,98010.35
2024-01-24T10:11:38.141Z,98012.87
2024-01-24T10:14:06.027Z,98018.85
2024-01-24T10:16:33.722Z,98019.92
2024-01-24T10:19:01.589Z,98008.23
2024-01-24T10:21:29.330Z,98009.76
2024-01-24T10:23:57.741Z,98016.33
2024-01-24T10:26:28.699Z,98004.20
2024-01-24T10:28:56.972Z,98009.70
2024-01-24T10:31:25.125Z,98003.22
2024-01-24T10:33:59.428Z,98000.73
2024-01-24T10:36:32.929Z,97997.67
2024-01-24T10:39:05.003Z,98002.20
2024-01-24T10:41:34.316Z,97992.17
2024-01-24T10:44:06.157Z,97982.00
2024-01-24T10:46:34.552Z,97976.88
2024-01-24T10:49:02.650Z,97971.23
2024-01-24T10:51:30.885Z,97969.87
2024-01-24T10:53:58.948Z,97952.15
2024-01-24T10:56:27.915Z,97934.32
2024-01-24T10:58:56.823Z,97932.59
2024-01-24T11:01:25.541Z,97935.95
2024-01-24T11:03:55.008Z,97938.86
2024-01-24T11:06:23.702Z,97937.60
2024-01-24T11:09:12.062Z,97924.86
2024-01-24T11:11:39.761Z,97927.20
2024-01-24T11:14:09.940Z,97926.24
2024-01-24T11:16:41.117Z,97924.28
2024-01-24T11:19:24.948Z,97916.92
2024-01-24T11:21:53.870Z,97918.98
2024-01-24T11:24:44.927Z,97911.14
2024-01-24T11:27:25.339Z,97913.05
2024-01-24T11:29:53.550Z,97901.05
2024-01-24T11:32:48.943Z,97899.65
2024-01-24T11:35:38.585Z,97893.85
2024-01-24T11:38:16.890Z,97895.50
2024-01-24T11:40:53.638Z,97887.27
2024-01-24T11:43:28.947Z,97889.46
2024-01-24T11:46:01.425Z,97879.70
2024-01-24T11:48:30.902Z,97869.55
2024-01-24T11:51:02.827Z,97888.76
2024-01-24T11:53:30.695Z,97886.64
2024-01-24T11:56:00.775Z,97879.36
2024-01-24T11:58:29.645Z,97865.77
2024-01-24T12:01:04.881Z,97876.70
2024-01-24T12:03:32.751Z,97877.70
2024-01-24T12:06:00.822Z,97874.88
2024-01-24T12:08:28.910Z,97871.52
2024-01-24T12:10:56.526Z,97866.14
2024-01-24T12:13:25.257Z,97864.24
2024-01-24T12:15:53.222Z,97866.85
2024-01-24T12:18:21.476Z,97861.46
2024-01-24T12:20:51.050Z,97856.07
2024-01-24T12:23:20.347Z,97859.21
2024-01-24T12:25:48.193Z,97855.73
2024-01-24T12:28:16.863Z,97844.23
2024-01-24T12:30:50.727Z,97842.48
2024-01-24T12:33:18.931Z,97842.87
2024-01-24T12:35:48.001Z,97837.09
2024-01-24T12:38:15.891Z,97843.19
2024-01-24T12:40:48.843Z,97831.38
2024-01-24T12:43:17.533Z,97834.56
2024-01-24T12:45:45.365Z,97828.52
2024-01-24T12:48:13.464Z,97827.24
2024-01-24T12:50:41.515Z,97825.70
2024-01-24T12:53:09.377Z,97819.06
2024-01-24T12:55:36.992Z,97818.86
2024-01-24T12:58:05.825Z,97811.52
2024-01-24T13:00:34.598Z,97812.68
2024-01-24T13:03:04.920Z,97822.55
2024-01-24T13:05:39.681Z,97826.86
2024-01-24T13:08:14.380Z,97825.56
2024-01-24T13:10:46.569Z,97825.14
2024-01-24T13:13:15.402Z,97828.90
2024-01-24T13:15:46.045Z,97840.33
2024-01-24T13:18:13.920Z,97836.48
2024-01-24T13:20:41.685Z,97855.41
2024-01-24T13:23:09.306Z,97877.48
2024-01-24T13:25:37.125Z,97915.52
2024-01-24T13:28:05.212Z,97974.39
2024-01-24T13:30:33.836Z,97988.29
2024-01-24T13:33:02.127Z,97976.61
2024-01-24T13:35:29.906Z,97966.89
2024-01-24T13:37:59.154Z,97968.86
2024-01-24T13:40:27.015Z,97966.34
2024-01-24T13:42:55.079Z,97963.28
2024-01-24T13:45:23.792Z,97963.91
2024-01-24T13:47:51.535Z,97964.08
2024-01-24T13:50:19.351Z,97960.37
2024-01-24T13:52:47.390Z,97959.48
2024-01-24T13:55:15.220Z,97956.85
2024-01-24T13:57:44.672Z,97950.08
2024-01-24T14:00:15.349Z,97949.38
2024-01-24T14:02:43.988Z,97951.06
2024-01-24T14:05:12.436Z,97943.95
2024-01-24T14:07:44.353Z,97925.52
2024-01-24T14:10:13.202Z,97916.65
2024-01-24T14:12:41.589Z,97921.34
2024-01-24T14:15:19.614Z,97924.13
2024-01-24T14:17:56.173Z,97925.33
2024-01-24T14:20:23.990Z,97919.02
2024-01-24T14:22:52.423Z,97909.81
2024-01-24T14:25:21.004Z,97917.34
2024-01-24T14:27:48.733Z,97939.75
2024-01-24T14:30:17.037Z,97940.80
2024-01-24T14:32:44.667Z,97942.53
2024-01-24T14:35:16.349Z,97936.12
2024-01-24T14:37:44.887Z,97941.48
2024-01-24T14:40:14.838Z,97950.35
2024-01-24T14:42:42.728Z,97944.98
2024-01-24T14:45:11.032Z,97955.58
2024-01-24T14:47:38.943Z,97951.06
2024-01-24T14:50:08.829Z,97948.61
2024-01-24T14:52:36.732Z,97943.67
2024-01-24T14:55:05.458Z,97941.70
2024-01-24T14:57:33.808Z,97943.41
2024-01-24T15:00:01.964Z,97948.93
2024-01-24T15:02:29.642Z,97948.00
2024-01-24T15:04:59.247Z,97952.63
2024-01-24T15:07:27.127Z,97950.34
2024-01-24T15:09:55.106Z,97952.35
2024-01-24T15:12:22.930Z,97957.30
2024-01-24T15:14:50.706Z,97959.33
2024-01-24T15:17:20.001Z,97968.56
2024-01-24T15:19:49.774Z,97978.09
2024-01-24T15:22:20.573Z,97980.48
2024-01-24T15:24:49.871Z,97979.59
2024-01-24T15:27:18.013Z,97978.23
2024-01-24T15:29:46.096Z,97969.98
2024-01-24T15:32:13.844Z,97969.44
2024-01-24T15:34:41.588Z,97972.48
2024-01-24T15:37:09.577Z,97968.27
2024-01-24T15:39:37.287Z,97973.79
2024-01-24T15:42:09.738Z,97972.38
2024-01-24T15:44:37.618Z,97966.88
2024-01-24T15:47:05.561Z,97968.66
2024-01-24T15:49:33.321Z,97962.66
2024-01-24T15:52:01.445Z,97975.10
2024-01-24T15:54:29.234Z,97981.11
2024-01-24T15:56:57.414Z,97988.50
2024-01-24T15:59:25.158Z,97992.74
2024-01-24T16:01:52.902Z,97998.75
2024-01-24T16:04:21.323Z,97988.50
2024-01-24T16:06:49.332Z,97993.39
2024-01-24T16:09:19.969Z,97995.06
2024-01-24T16:11:47.740Z,98000.92
2024-01-24T16:14:16.831Z,97996.92
2024-01-24T16:16:47.129Z,97997.11
2024-01-24T16:19:14.978Z,98000.14
2024-01-24T16:21:46.710Z,98009.39
2024-01-24T16:24:14.456Z,98010.30
2024-01-24T16:26:42.148Z,98016.42
2024-01-24T16:29:09.895Z,98027.23
2024-01-24T16:31:37.504Z,98037.47
2024-01-24T16:34:06.342Z,98039.88
2024-01-24T16:36:34.131Z,98047.84
2024-01-24T16:39:02.145Z,98053.21
2024-01-24T16:41:33.171Z,98057.52
2024-01-24T16:44:01.542Z,98061.14
2024-01-24T16:46:29.188Z,98057.10
2024-01-24T16:48:56.957Z,98048.73
2024-01-24T16:51:25.400Z,98049.05
2024-01-24T16:53:54.254Z,98045.52
2024-01-24T16:56:21.898Z,98046.66
2024-01-24T16:58:49.571Z,98042.75
2024-01-24T17:01:17.226Z,98045.11
2024-01-24T17:03:45.979Z,98048.35
2024-01-24T17:06:13.986Z,98047.19
2024-01-24T17:08:41.589Z,98063.10
2024-01-24T17:11:10.029Z,98069.99
2024-01-24T17:13:37.640Z,98073.17
2024-01-24T17:16:05.803Z,98076.30
2024-01-24T17:18:33.651Z,98078.75
2024-01-24T17:21:01.371Z,98076.52
2024-01-24T17:23:28.978Z,98077.48
2024-01-24T17:25:56.846Z,98077.86
2024-01-24T17:28:24.465Z,98080.48
2024-01-24T17:30:53.631Z,98085.34
2024-01-24T17:33:21.386Z,98093.34
2024-01-24T17:35:49.263Z,98091.67
2024-01-24T17:38:19.418Z,98096.33
2024-01-24T17:40:47.485Z,98093.30
2024-01-24T17:43:15.211Z,98089.59
2024-01-24T17:45:42.961Z,98095.07
2024-01-24T17:48:11.369Z,98090.70
2024-01-24T17:50:39.194Z,98082.54
2024-01-24T17:53:06.924Z,98086.52
2024-01-24T17:55:34.605Z,98091.89
2024-01-24T17:58:02.320Z,98088.89
2024-01-24T18:00:30.035Z,98095.98
2024-01-24T18:02:57.822Z,98094.77
2024-01-24T18:05:25.609Z,98095.89
2024-01-24T18:07:53.320Z,98094.70
2024-01-24T18:10:21.403Z,98095.73
2024-01-24T18:12:49.171Z,98101.11
2024-01-24T18:15:18.239Z,98099.57
2024-01-24T18:17:45.927Z,98100.67
2024-01-24T18:20:13.682Z,98102.13
2024-01-24T18:22:43.097Z,98103.48
2024-01-24T18:25:11.767Z,98101.38
2024-01-24T18:27:39.449Z,98105.52
2024-01-24T18:30:08.049Z,98100.14
2024-01-24T18:32:35.914Z,98103.65
2024-01-24T18:35:04.476Z,98097.55
2024-01-24T18:37:32.731Z,98102.37
2024-01-24T18:40:00.446Z,98100.02
2024-01-24T18:42:28.785Z,98101.69
2024-01-24T18:44:57.291Z,98103.69
2024-01-24T18:47:26.116Z,98099.89
2024-01-24T18:49:53.977Z,98102.66
2024-01-24T18:52:22.716Z,98101.95
2024-01-24T18:54:50.753Z,98103.98
2024-01-24T18:57:19.087Z,98099.92
2024-01-24T18:59:47.026Z,98099.32
2024-01-24T19:02:16.774Z,98101.21
2024-01-24T19:04:46.334Z,98107.98
2024-01-24T19:07:15.564Z,98103.13
2024-01-24T19:09:44.543Z,98107.95
2024-01-24T19:12:12.317Z,98109.09
2024-01-24T19:14:43.102Z,98102.05
2024-01-24T19:17:10.973Z,98097.98
2024-01-24T19:19:38.630Z,98098.50
2024-01-24T19:22:06.359Z,98095.73
2024-01-24T19:24:35.239Z,98098.55
2024-01-24T19:27:03.260Z,98105.27
2024-01-24T19:29:31.119Z,98095.34
2024-01-24T19:31:58.848Z,98090.64
2024-01-24T19:34:26.593Z,98086.69
2024-01-24T19:36:54.293Z,98088.82
2024-01-24T19:39:22.630Z,98087.77
2024-01-24T19:41:50.406Z,98093.43
2024-01-24T19:44:18.258Z,98093.38
2024-01-24T19:46:46.120Z,98090.70
2024-01-24T19:49:14.350Z,98087.23
2024-01-24T19:51:42.147Z,98095.58
2024-01-24T19:54:09.847Z,98096.44
2024-01-24T19:56:37.443Z,98096.06
2024-01-24T19:59:05.176Z,98096.35
2024-01-24T20:01:32.954Z,98099.11
2024-01-24T20:04:00.940Z,98097.22
2024-01-24T20:06:28.688Z,98092.36
2024-01-24T20:08:56.380Z,98089.38
2024-01-24T20:11:23.958Z,98094.14
2024-01-24T20:13:51.837Z,98091.77
2024-01-24T20:16:19.602Z,98100.37
2024-01-24T20:18:47.239Z,98112.65
2024-01-24T20:21:15.090Z,98115.25
2024-01-24T20:23:42.951Z,98118.59
2024-01-24T20:26:13.346Z,98127.62
2024-01-24T20:28:41.018Z,98118.67
2024-01-24T20:31:08.813Z,98116.34
2024-01-24T20:33:43.561Z,98115.48
2024-01-24T20:36:11.574Z,98117.40
2024-01-24T20:38:42.018Z,98113.55
2024-01-24T20:41:10.433Z,98113.73
2024-01-24T20:43:39.116Z,98117.23
2024-01-24T20:46:08.360Z,98115.01
2024-01-24T20:48:36.418Z,98114.85
2024-01-24T20:51:04.914Z,98118.80
2024-01-24T20:53:32.561Z,98118.46
2024-01-24T20:56:00.224Z,98122.69
2024-01-24T20:58:28.212Z,98107.33
2024-01-24T21:00:56.017Z,98112.71
2024-01-24T21:03:24.123Z,98107.11
2024-01-24T21:05:52.946Z,98108.65
2024-01-24T21:08:21.486Z,98112.83
2024-01-24T21:10:55.643Z,98110.48
2024-01-24T21:13:29.988Z,98119.17
2024-01-24T21:15:57.901Z,98114.81
2024-01-24T21:18:27.300Z,98117.93
2024-01-24T21:20:56.978Z,98115.17
2024-01-24T21:23:26.031Z,98124.73
2024-01-24T21:25:53.643Z,98143.99
2024-01-24T21:28:21.278Z,98138.60
2024-01-24T21:30:49.106Z,98149.05
2024-01-24T21:33:16.942Z,98150.67
2024-01-24T21:35:44.683Z,98149.48
2024-01-24T21:38:14.147Z,98141.66
2024-01-24T21:40:42.113Z,98150.33
2024-01-24T21:43:09.740Z,98144.86
2024-01-24T21:45:37.478Z,98139.41
2024-01-24T21:48:06.275Z,98140.90
2024-01-24T21:50:33.928Z,98136.10
2024-01-24T21:53:01.718Z,98135.59
2024-01-24T21:55:29.375Z,98144.64
2024-01-24T21:57:57.238Z,98141.08
2024-01-24T22:00:24.946Z,98144.60
2024-01-24T22:02:53.527Z,98143.36
2024-01-24T22:05:22.159Z,98152.58
2024-01-24T22:07:51.202Z,98151.15
2024-01-24T22:10:19.282Z,98150.63
2024-01-24T22:12:48.393Z,98160.70
2024-01-24T22:15:16.215Z,98146.39
2024-01-24T22:17:44.036Z,98146.50
2024-01-24T22:20:12.343Z,98145.52
2024-01-24T22:22:40.054Z,98144.76
2024-01-24T22:25:08.445Z,98142.11
2024-01-24T22:27:36.228Z,98144.09
2024-01-24T22:30:06.026Z,98144.85
2024-01-24T22:32:34.132Z,98151.00
2024-01-24T22:35:02.644Z,98143.52
2024-01-24T22:37:30.622Z,98136.69
2024-01-24T22:39:58.620Z,98145.15
2024-01-24T22:42:26.386Z,98143.52
2024-01-24T22:44:54.043Z,98146.21
2024-01-24T22:47:22.143Z,98140.86
2024-01-24T22:49:50.026Z,98140.73
2024-01-24T22:52:18.887Z,98141.93
2024-01-24T22:54:46.697Z,98148.14
2024-01-24T22:57:14.388Z,98153.52
2024-01-24T22:59:42.008Z,98150.59
2024-01-24T23:02:10.529Z,98153.73
2024-01-24T23:04:38.390Z,98142.46
2024-01-24T23:07:06.156Z,98153.23
2024-01-24T23:09:34.009Z,98149.63
2024-01-24T23:12:01.622Z,98147.94
2024-01-24T23:14:29.213Z,98149.52
2024-01-24T23:16:56.821Z,98144.83
2024-01-24T23:19:24.467Z,98149.29
2024-01-24T23:21:52.368Z,98141.27
2024-01-24T23:24:20.155Z,98151.55
2024-01-24T23:26:48.174Z,98145.52
2024-01-24T23:29:15.804Z,98146.47
2024-01-24T23:31:43.552Z,98144.38
2024-01-24T23:34:12.510Z,98149.73
2024-01-24T23:36:40.320Z,98142.13
2024-01-24T23:39:08.101Z,98153.60
2024-01-24T23:41:38.985Z,98152.02
2024-01-24T23:44:07.123Z,98155.09
2024-01-24T23:46:34.695Z,98154.55
2024-01-24T23:49:02.653Z,98145.27
2024-01-24T23:51:33.588Z,98157.29
2024-01-24T23:54:03.324Z,98157.50
2024-01-24T23:56:30.947Z,98162.70
2024-01-24T23:58:58.616Z,98166.30
